Insider Trading activities of Alpharma Inc insiders.

Monthly summaries of insider trading activities (stock purchases, sales, and option exercises) reported by insiders of Alpharma Inc since 2005 are illustrated in Table 1 and Table 2. Table 1 shows the monthly insider trading data of Alpharma Inc since year 2005. Table 2 shows the detailed insider transactions of Alpharma Inc since 2005. The reporting company's ticker symbol is ALO. The reporting company's CIK number is 730469.
The total value of stock buying since 2005 is $1,227,970.
The total value of stock sales since 2005 is $19,876,050.
The total value of stock option exercises since 2005 is $8,821,962.


Table 1. Monthly summaries of insider stock purchases, sales, and option exercises for Alpharma Inc (ALO).
Trading Period Insider Buying Insider Sales Option Exercises
year-month Shares Value Shares Value Shares Value
2008-08 3,070 $73,488 94,174 $2,433,728 0 $0
2008-07 0 $0 200 $4,544 0 $0
2008-06 3,500 $81,293 0 $0 0 $0
2008-05 0 $0 0 $0 2,000 $43,250
2008-04 0 $0 0 $0 11,470 $0
2008-03 18,000 $454,626 3,176 $87,041 3,375 $66,825
2008-02 19,500 $490,763 18,756 $469,425 0 $0
2007-12 0 $0 12,370 $247,981 0 $0
2007-09 6,000 $127,800 0 $0 0 $0
2007-06 0 $0 44,061 $1,120,863 34,500 $520,378
2007-05 0 $0 12,307 $286,785 4,000 $68,000
2007-03 0 $0 3,052 $78,589 0 $0
2007-02 0 $0 42,000 $1,176,000 42,000 $669,732
2007-01 0 $0 6,250 $168,750 6,250 $59,250
2006-12 0 $0 6,750 $157,578 6,750 $57,638
2006-11 0 $0 50,892 $1,188,193 41,250 $620,700
2006-08 0 $0 1,875 $38,662 1,875 $20,943
2006-07 0 $0 9,727 $210,735 5,000 $0
2006-05 0 $0 91,250 $2,360,933 93,250 $1,367,218
2006-04 0 $0 5,000 $136,075 5,000 $72,185
2006-03 0 $0 268,501 $7,319,276 261,500 $3,529,351
2006-01 0 $0 38,168 $1,213,233 38,168 $824,579
2005-12 0 $0 35,500 $1,033,050 35,500 $901,913
2005-11 0 $0 5,730 $144,609 0 $0

Table 2. Detailed insider stock purchases, sales, and option exercises of Alpharma Inc insiders (ALO)
  Trade Date   Insider Name Trade Type     Shares       Price ($)   Value ($)
2008-08-22 Aigner Stefan (Other) Sale 15,900 34.36 546,403
2008-08-19 J.p. Morgan Ventures Corp (10% Owner) Sale 17,000 23.84 405,212
2008-08-19 J P Morgan Chase & Co (10% Owner) Sale 17,446 23.95 417,761
2008-08-18 J.p. Morgan Ventures Corp (10% Owner) Sale 21,000 24.32 510,783
2008-08-18 J P Morgan Chase & Co (10% Owner) Sale 22,000 24.28 534,182
2008-08-15 J P Morgan Chase & Co (10% Owner) Buy 368 24.23 8,917
2008-08-15 J P Morgan Chase & Co (10% Owner) Sale 100 23.93 2,393
2008-08-14 J P Morgan Chase & Co (10% Owner) Buy 702 23.89 16,770
2008-08-12 J P Morgan Chase & Co (10% Owner) Buy 400 24.78 9,914
2008-08-12 J P Morgan Chase & Co (10% Owner) Sale 50 24.85 1,242
2008-08-11 J P Morgan Chase & Co (10% Owner) Buy 600 25.09 15,052
2008-08-11 J P Morgan Chase & Co (10% Owner) Sale 89 25.00 2,225
2008-08-08 J P Morgan Chase & Co (10% Owner) Buy 100 23.48 2,348
2008-08-08 J P Morgan Chase & Co (10% Owner) Sale 289 24.29 7,019
2008-08-06 J P Morgan Chase & Co (10% Owner) Buy 300 23.27 6,979
2008-08-05 J P Morgan Chase & Co (10% Owner) Buy 300 23.14 6,940
2008-08-04 J P Morgan Chase & Co (10% Owner) Sale 200 21.58 4,316
2008-08-01 J P Morgan Chase & Co (10% Owner) Buy 300 21.90 6,568
2008-08-01 J P Morgan Chase & Co (10% Owner) Sale 100 21.92 2,192
2008-07-31 J P Morgan Chase & Co (10% Owner) Sale 200 22.72 4,544
2008-06-13 Campbell Jeffrey (EVP, CFO) Buy 3,000 23.21 69,636
2008-06-12 Uprichard David C (Director) Buy 500 23.32 11,657
2008-05-08 Tombros Peter (Director) Option Ex 2,000 21.62 43,250
2008-04-01 Carlsson Carl Ake (President, API) Option Ex 11,470 .00 0
2008-03-19 Carlsson Carl Ake (President, API) Sale 3,176 27.41 87,041
2008-03-19 Carlsson Carl Ake (President, API) Option Ex 3,375 19.80 66,825
2008-03-07 Uprichard David C (Director) Buy 500 26.30 13,152
2008-03-05 Watts Peter (EVP, HR) Buy 4,000 25.00 100,000
2008-03-05 Uprichard David C (Director) Buy 500 25.02 12,507
2008-03-03 Peter Ladell W (Director) Buy 3,000 25.14 75,417
2008-03-03 Aigner Stefan (EVP Corporate Development) Buy 10,000 25.36 253,550
2008-02-29 Perez Ray (Director) Buy 2,400 24.60 59,030
2008-02-29 Warner Ronald (E.V.P. & President, Brand) Sale 18,756 25.03 469,425
2008-02-29 Mitchell Dean J (President and CEO) Buy 10,000 25.25 252,473
2007-12-31 Campbell Jeffrey (EVP, CFO) Sale 12,370 20.05 247,981
2007-09-14 Aigner Stefan (EVP Corporate Development) Buy 6,000 21.30 127,800
2007-06-14 Cella Richard (EVP & Chief Info Officer) Sale 31,125 25.46 792,380
2007-06-14 Cella Richard (EVP & Chief Info Officer) Option Ex 31,125 14.57 453,553
2007-06-04 Carlsson Carl Ake (President, API) Sale 12,936 25.39 328,483
2007-06-04 Carlsson Carl Ake (President, API) Option Ex 3,375 19.80 66,825
2007-05-29 Tombros Peter (Director) Option Ex 2,000 17.00 34,000
2007-05-17 Wrobel Robert (E.V.P., CLO, Secretary) Sale 5,179 23.34 120,867
2007-05-17 Wrenn Carol (President, Animal Health) Sale 7,128 23.28 165,918
2007-05-01 Hess Glen (Director) Option Ex 2,000 17.00 34,000
2007-03-09 Campbell Jeffrey (VP, Finance) Sale 3,052 25.75 78,589
2007-02-01 Wrenn Carol (President, Animal Health) Sale 42,000 28.00 1,176,000
2007-02-01 Wrenn Carol (President, Animal Health) Option Ex 42,000 15.95 669,732
2007-01-29 Carlsson Carl Ake (President, API) Sale 6,250 27.00 168,750
2007-01-29 Carlsson Carl Ake (President, API) Option Ex 6,250 9.48 59,250
2006-12-15 Campbell Jeffrey (VP, Finance) Sale 6,750 23.34 157,578
2006-12-15 Campbell Jeffrey (VP, Finance) Option Ex 6,750 8.54 57,638
2006-11-15 Rose George (E.V.P., Human Resources &) Sale 9,642 23.27 224,369
2006-11-14 Campbell Jeffrey (VP, Finance) Sale 3,750 23.39 87,712
2006-11-14 Campbell Jeffrey (VP, Finance) Option Ex 3,750 19.80 74,250
2006-11-14 Rose George (E.V.P., Human Resources &) Sale 37,500 23.36 876,112
2006-11-14 Rose George (E.V.P., Human Resources &) Option Ex 37,500 14.57 546,450
2006-08-22 Campbell Jeffrey (VP, Finance) Sale 1,875 20.62 38,662
2006-08-22 Campbell Jeffrey (VP, Finance) Option Ex 1,875 11.17 20,943
2006-07-31 Sissener Einar W (10% Owner) Option Ex 5,000 .00 0
2006-07-18 Wrenn Carol (President, Animal Health) Sale 9,727 21.66 210,735
2006-05-18 Hess Glen (Director) Option Ex 2,000 23.25 46,500
2006-05-12 Carlsson Carl Ake (President, API) Sale 10,000 24.62 246,240
2006-05-12 Carlsson Carl Ake (President, API) Option Ex 10,000 .00 0
2006-05-09 Farrell Matthew (E.V.P., Finance and CFO) Sale 81,250 26.03 2,114,693
2006-05-09 Farrell Matthew (E.V.P., Finance and CFO) Option Ex 81,250 16.26 1,320,718
2006-04-03 Carlsson Carl Ake (President, API) Sale 5,000 27.22 136,075
2006-04-03 Carlsson Carl Ake (President, API) Option Ex 5,000 14.44 72,185
2006-03-30 Campbell Jeffrey (VP, Finance) Sale 5,000 27.28 136,400
2006-03-30 Campbell Jeffrey (VP, Finance) Option Ex 5,000 8.54 42,695
2006-03-17 Warner Ronald (E.V.P. & President, Brand) Sale 20,000 27.37 547,320
2006-03-17 Warner Ronald (E.V.P. & President, Brand) Option Ex 20,000 12.76 255,200
2006-03-17 Campbell Jeffrey (VP, Finance) Sale 20,251 27.39 554,634
2006-03-17 Campbell Jeffrey (VP, Finance) Option Ex 15,250 8.54 130,219
2006-03-17 Hess Glen (Director) Sale 2,000 27.11 54,220
2006-03-17 Carlsson Carl Ake (President, API) Sale 40,500 27.09 1,097,064
2006-03-17 Carlsson Carl Ake (President, API) Option Ex 40,500 14.57 590,166
2006-03-17 Wrobel Robert (E.V.P., CLO, Secretary) Sale 30,000 27.23 816,990
2006-03-17 Wrobel Robert (E.V.P., CLO, Secretary) Option Ex 30,000 11.96 358,740
2006-03-17 Wrenn Carol (President, Animal Health) Sale 36,000 27.23 980,388
2006-03-17 Wrenn Carol (President, Animal Health) Option Ex 36,000 11.96 430,488
2006-03-17 Farrell Matthew (E.V.P., Finance and CFO) Sale 75,000 27.33 2,049,749
2006-03-17 Farrell Matthew (E.V.P., Finance and CFO) Option Ex 75,000 16.05 1,203,750
2006-03-17 Cella Richard (EVP & Chief Info Officer) Sale 22,500 27.23 612,742
2006-03-17 Cella Richard (EVP & Chief Info Officer) Option Ex 22,500 11.96 269,055
2006-03-17 Rose George (E.V.P., Human Resources &) Sale 17,250 27.23 469,769
2006-03-17 Rose George (E.V.P., Human Resources &) Option Ex 17,250 14.44 249,038
2006-01-27 Wrenn Carol (President, Animal He) Sale 10,834 33.06 358,226
2006-01-27 Wrenn Carol (President, Animal He) Option Ex 10,834 25.41 275,248
2006-01-20 Wrobel Robert (E.V.P., CLO, Secret) Sale 27,334 31.28 855,007
2006-01-20 Wrobel Robert (E.V.P., CLO, Secret) Option Ex 27,334 20.10 549,331
2005-12-29 Wilk Ingrid (CEO, Director) Sale 35,500 29.10 1,033,050
2005-12-29 Wilk Ingrid (CEO, Director) Option Ex 35,500 25.41 901,913
2005-11-18 Lynch Fred (President, US Generi) Sale 1,430 26.55 37,969
2005-11-11 Lynch Fred (President, US Generi) Sale 4,300 24.80 106,640

Insider trading activities including stock purchases, stock sales, and option exercises of ALO listed in the above tables cannot be completely guaranteed as to their accuracy. For more insider trading information of Alpharma Inc (symbol ALO, CIK number 730469) see the Securities and Exchange Commission (SEC) website.